Time;durP1;ratioP1;P1;durP2;ratioP2;P2;SDS_P1;SDS_P2;PMS_P1;PMS_P2;Temp;Humidity;BMP_temperature;BMP_pressure;BME280_temperature;BME280_humidity;BME280_pressure;Samples;Min_cycle;Max_cycle;Signal;HPM_P1;HPM_P2
2023/11/07 00:33:56;;;;;;;0.90;0.60;;;10.00;99.90;;;;;;6233436;28;20057;-78
2023/11/07 00:36:58;;;;;;;1.35;0.63;;;10.00;99.90;;;;;;6225022;28;20053;-78
2023/11/07 00:40:00;;;;;;;1.10;0.63;;;10.00;99.90;;;;;;6238570;28;20054;-78
2023/11/07 00:43:02;;;;;;;1.15;0.50;;;10.10;99.90;;;;;;6233357;28;20045;-78
2023/11/07 00:46:04;;;;;;;1.95;0.60;;;10.10;99.90;;;;;;6235774;28;20041;-78
2023/11/07 00:49:07;;;;;;;6.32;0.50;;;10.00;99.90;;;;;;6245077;28;20046;-78
2023/11/07 00:52:09;;;;;;;1.58;0.50;;;10.00;99.90;;;;;;6235047;28;20060;-78
2023/11/07 00:55:11;;;;;;;2.67;0.60;;;9.90;99.90;;;;;;6249384;28;20129;-78
2023/11/07 00:58:13;;;;;;;0.52;0.35;;;9.90;99.90;;;;;;6242180;28;20538;-79
2023/11/07 01:01:16;;;;;;;1.17;0.63;;;9.90;99.90;;;;;;6242658;28;20470;-78
2023/11/07 01:04:19;;;;;;;0.85;0.70;;;9.90;99.90;;;;;;6246005;28;20045;-78
2023/11/07 01:07:21;;;;;;;0.57;0.57;;;10.00;99.90;;;;;;6240718;28;20041;-78
2023/11/07 01:10:23;;;;;;;0.63;0.63;;;10.00;99.90;;;;;;6252887;28;20049;-78
2023/11/07 01:13:24;;;;;;;0.57;0.35;;;10.00;99.90;;;;;;6254496;28;20049;-78
2023/11/07 01:16:26;;;;;;;3.10;0.57;;;9.90;99.90;;;;;;6237828;28;20051;-79
2023/11/07 01:19:29;;;;;;;0.30;0.30;;;9.90;99.90;;;;;;6240074;28;20052;-79
2023/11/07 01:22:31;;;;;;;1.13;0.98;;;9.90;99.90;;;;;;6243828;28;20057;-78
2023/11/07 01:25:32;;;;;;;0.63;0.60;;;9.90;99.90;;;;;;6252863;28;20049;-79
2023/11/07 01:28:34;;;;;;;0.63;0.60;;;9.80;99.90;;;;;;6255264;28;20053;-79
2023/11/07 01:31:36;;;;;;;5.05;1.35;;;9.70;99.90;;;;;;6238912;28;20050;-79
2023/11/07 01:34:39;;;;;;;1.90;0.45;;;9.70;99.90;;;;;;6247089;28;20050;-79
2023/11/07 01:37:40;;;;;;;0.98;0.68;;;9.60;99.90;;;;;;6239509;28;20057;-79
2023/11/07 01:40:42;;;;;;;0.75;0.40;;;9.60;99.90;;;;;;6239175;28;20064;-78
2023/11/07 01:43:45;;;;;;;0.55;0.55;;;9.60;99.90;;;;;;6247474;28;20049;-79
2023/11/07 01:46:47;;;;;;;1.88;0.40;;;9.60;99.90;;;;;;6239570;28;20125;-79
2023/11/07 01:49:50;;;;;;;1.52;0.40;;;9.50;99.90;;;;;;6237441;28;20054;-79
2023/11/07 01:52:52;;;;;;;1.88;0.77;;;9.40;99.90;;;;;;6238833;28;20517;-79
2023/11/07 01:55:54;;;;;;;0.70;0.40;;;9.40;99.90;;;;;;6231016;28;20057;-79
2023/11/07 01:58:59;;;;;;;1.02;0.60;;;9.30;99.90;;;;;;6238791;28;20045;-79
2023/11/07 02:02:05;;;;;;;1.42;0.80;;;9.30;99.90;;;;;;6239027;28;20053;-79
2023/11/07 02:05:10;;;;;;;0.82;0.82;;;9.20;99.90;;;;;;6227765;28;20052;-79
2023/11/07 02:08:12;;;;;;;1.90;0.73;;;9.20;99.90;;;;;;6232735;28;20392;-78
2023/11/07 02:11:13;;;;;;;1.75;1.00;;;9.10;99.90;;;;;;6233481;28;20049;-79
2023/11/07 02:14:27;;;;;;;1.05;0.50;;;9.10;99.90;;;;;;6221690;28;20042;-78
2023/11/07 02:17:29;;;;;;;0.45;0.40;;;9.10;99.90;;;;;;6229367;28;20046;-78
2023/11/07 02:20:36;;;;;;;0.60;0.60;;;9.20;99.90;;;;;;6232085;28;20060;-78
2023/11/07 02:23:39;;;;;;;1.88;0.68;;;9.20;99.90;;;;;;6226904;28;20060;-78
2023/11/07 02:26:41;;;;;;;0.68;0.50;;;9.10;99.90;;;;;;6227303;28;20046;-79
2023/11/07 02:29:42;;;;;;;0.50;0.50;;;9.00;99.90;;;;;;6237349;28;20046;-78
2023/11/07 02:32:45;;;;;;;1.40;0.68;;;9.00;99.90;;;;;;6225420;28;20129;-78
2023/11/07 02:35:47;;;;;;;0.40;0.40;;;8.90;99.90;;;;;;6235298;28;20046;-78
2023/11/07 02:38:50;;;;;;;1.35;0.50;;;8.80;99.90;;;;;;6236045;28;20049;-77
2023/11/07 02:41:52;;;;;;;8.55;0.80;;;8.80;99.90;;;;;;6220254;28;20058;-78
2023/11/07 02:44:53;;;;;;;2.95;0.70;;;8.70;99.90;;;;;;6221000;28;20056;-78
2023/11/07 02:47:55;;;;;;;6.55;1.15;;;8.70;99.90;;;;;;6221496;28;20050;-79
2023/11/07 02:50:57;;;;;;;0.50;0.50;;;8.70;99.90;;;;;;6220800;28;20084;-79
2023/11/07 02:54:00;;;;;;;1.33;0.50;;;8.80;99.90;;;;;;6221478;28;20049;-78
2023/11/07 02:57:02;;;;;;;0.40;0.40;;;8.90;99.90;;;;;;6220769;28;20554;-78
2023/11/07 03:00:08;;;;;;;3.90;0.77;;;8.90;99.90;;;;;;6238948;28;20494;-78
2023/11/07 03:03:10;;;;;;;0.63;0.50;;;9.00;99.90;;;;;;6245448;28;20046;-78
2023/11/07 03:06:11;;;;;;;3.25;0.98;;;9.00;99.90;;;;;;6245453;28;20561;-78
2023/11/07 03:09:15;;;;;;;2.08;0.68;;;9.10;99.90;;;;;;6245877;28;20060;-78
2023/11/07 03:12:17;;;;;;;0.68;0.50;;;9.20;99.90;;;;;;6250706;28;20076;-79
2023/11/07 03:15:19;;;;;;;1.35;0.60;;;9.20;99.90;;;;;;6228084;28;20045;-79
2023/11/07 03:18:20;;;;;;;0.82;0.52;;;9.20;99.90;;;;;;6225321;28;20049;-79
2023/11/07 03:21:22;;;;;;;1.55;0.68;;;9.30;99.90;;;;;;6225434;28;20415;-78
2023/11/07 03:24:25;;;;;;;0.75;0.75;;;9.30;99.90;;;;;;6246841;28;20053;-79
2023/11/07 03:27:27;;;;;;;2.05;0.55;;;9.30;99.90;;;;;;6229732;28;20038;-79
2023/11/07 03:30:28;;;;;;;0.57;0.50;;;9.40;99.90;;;;;;6226324;28;20046;-79
2023/11/07 03:33:30;;;;;;;2.15;0.40;;;9.40;99.90;;;;;;6235068;28;20052;-80
2023/11/07 03:36:32;;;;;;;1.83;0.70;;;9.50;99.90;;;;;;6241648;28;20689;-78
2023/11/07 03:39:35;;;;;;;0.50;0.35;;;9.50;99.90;;;;;;6236525;28;20136;-79
2023/11/07 03:42:37;;;;;;;1.30;0.60;;;9.50;99.90;;;;;;6240186;28;20049;-79
2023/11/07 03:45:38;;;;;;;0.95;0.50;;;9.60;99.90;;;;;;6236170;28;20076;-79
2023/11/07 03:48:40;;;;;;;0.60;0.60;;;9.70;99.90;;;;;;6239726;28;20056;-78
2023/11/07 03:51:42;;;;;;;0.60;0.45;;;9.70;99.90;;;;;;6236370;28;20064;-79
2023/11/07 03:54:45;;;;;;;1.60;0.57;;;9.80;99.90;;;;;;6240162;28;20046;-79
2023/11/07 03:57:46;;;;;;;4.38;1.98;;;9.80;99.90;;;;;;6233645;28;20049;-78
2023/11/07 04:00:48;;;;;;;2.08;0.65;;;9.90;99.90;;;;;;6238600;28;20060;-78
2023/11/07 04:03:50;;;;;;;0.73;0.60;;;9.90;99.90;;;;;;6244090;28;20073;-78
2023/11/07 04:06:52;;;;;;;0.65;0.40;;;10.00;99.90;;;;;;6235996;28;20059;-78
2023/11/07 04:09:55;;;;;;;1.95;0.40;;;10.00;99.90;;;;;;6236394;28;20046;-78
2023/11/07 04:12:57;;;;;;;0.60;0.50;;;10.00;99.90;;;;;;6227871;28;20057;-78
2023/11/07 04:15:58;;;;;;;1.88;0.70;;;10.00;99.90;;;;;;6236933;28;20045;-78
2023/11/07 04:19:00;;;;;;;5.00;0.40;;;10.00;99.90;;;;;;6238951;28;20053;-79
2023/11/07 04:22:30;;;;;;;2.05;0.50;;;10.10;99.90;;;;;;6235450;28;20053;-79
2023/11/07 04:38:10;;;;;;;2.53;0.68;;;10.10;99.90;;;;;;6238270;28;20053;-79
2023/11/07 04:41:15;;;;;;;1.77;0.95;;;10.10;99.90;;;;;;6248594;28;20510;-79
2023/11/07 04:44:23;;;;;;;0.73;0.50;;;10.10;99.90;;;;;;6252482;28;20057;-79
2023/11/07 04:47:24;;;;;;;;;;;10.10;99.90;;;;;;6244650;28;20546;-79
2023/11/07 04:54:54;;;;;;;0.77;0.77;;;10.10;99.90;;;;;;6238022;28;20542;-78
2023/11/07 05:06:16;;;;;;;0.50;0.50;;;10.10;99.90;;;;;;6251209;28;20034;-79
2023/11/07 05:09:18;;;;;;;4.20;1.10;;;10.10;99.90;;;;;;6250304;28;20065;-79
2023/11/07 05:12:20;;;;;;;0.93;0.55;;;10.10;99.90;;;;;;6245727;28;20058;-79
2023/11/07 05:15:21;;;;;;;1.85;0.57;;;10.10;99.90;;;;;;6235721;28;20419;-80
2023/11/07 05:18:23;;;;;;;1.90;0.80;;;10.10;99.90;;;;;;6236322;28;20038;-79
2023/11/07 05:21:26;;;;;;;1.80;0.50;;;10.10;99.90;;;;;;6233188;28;20050;-79
2023/11/07 05:24:28;;;;;;;2.72;0.40;;;10.10;99.90;;;;;;6238190;22;20395;-80
2023/11/07 05:27:31;;;;;;;0.60;0.40;;;10.00;99.90;;;;;;6200904;28;20046;-80
2023/11/07 05:58:51;;;;;;;0.50;0.50;;;10.00;99.90;;;;;;6218329;28;20033;-79
2023/11/07 06:10:07;;;;;;;1.50;0.60;;;9.90;99.90;;;;;;6216699;28;20038;-79
2023/11/07 06:25:00;;;;;;;1.73;0.68;;;9.70;99.90;;;;;;6215551;28;20038;-79
2023/11/07 06:28:03;;;;;;;1.95;0.60;;;9.60;99.90;;;;;;6210039;28;20042;-79
2023/11/07 06:31:05;;;;;;;1.50;0.70;;;9.60;99.90;;;;;;6225682;28;20038;-79
2023/11/07 06:34:07;;;;;;;2.85;0.90;;;9.60;99.90;;;;;;6216653;28;20055;-78
2023/11/07 06:37:12;;;;;;;2.15;0.80;;;9.50;99.90;;;;;;6202118;28;20547;-80
2023/11/07 06:40:14;;;;;;;0.60;0.60;;;9.50;99.90;;;;;;6204116;28;20046;-80
2023/11/07 06:43:17;;;;;;;1.55;0.75;;;9.50;99.90;;;;;;6218185;28;20050;-79
2023/11/07 06:46:19;;;;;;;0.73;0.63;;;9.50;99.90;;;;;;6213385;28;20045;-79
2023/11/07 06:49:51;;;;;;;1.25;0.80;;;9.50;99.90;;;;;;6212130;28;20121;-78
2023/11/07 06:52:53;;;;;;;2.10;0.90;;;9.50;99.90;;;;;;6219027;28;20137;-78
2023/11/07 06:55:55;;;;;;;1.40;1.10;;;9.60;99.90;;;;;;6217303;28;20049;-76
2023/11/07 06:58:58;;;;;;;3.28;0.50;;;9.60;99.90;;;;;;6234641;28;20071;-78
2023/11/07 07:02:00;;;;;;;1.08;0.70;;;9.60;99.90;;;;;;6214635;28;20125;-77
2023/11/07 07:05:03;;;;;;;0.85;0.80;;;9.70;99.90;;;;;;6213535;28;20051;-78
2023/11/07 07:08:07;;;;;;;0.75;0.60;;;9.70;99.90;;;;;;6208079;28;20050;-78
2023/11/07 07:11:09;;;;;;;0.82;0.73;;;9.70;99.90;;;;;;6219229;28;20060;-77
2023/11/07 07:14:12;;;;;;;0.82;0.55;;;9.80;99.90;;;;;;6210532;28;20486;-77
2023/11/07 07:17:15;;;;;;;1.85;1.00;;;9.90;99.90;;;;;;6219200;28;20084;-78
2023/11/07 07:20:17;;;;;;;0.88;0.60;;;10.00;99.90;;;;;;6221364;28;20073;-78
2023/11/07 07:23:19;;;;;;;1.15;0.90;;;10.00;99.90;;;;;;6218457;28;20058;-79
2023/11/07 07:26:24;;;;;;;2.17;0.68;;;10.10;99.90;;;;;;6215199;28;20426;-77
2023/11/07 07:29:27;;;;;;;2.30;0.80;;;10.10;99.90;;;;;;6213747;28;20053;-77
2023/11/07 07:32:29;;;;;;;0.80;0.70;;;10.10;99.90;;;;;;6219852;28;20056;-79
2023/11/07 07:35:32;;;;;;;1.40;0.60;;;10.20;99.90;;;;;;6215393;28;20349;-77
2023/11/07 07:38:35;;;;;;;4.28;1.73;;;10.30;99.90;;;;;;6220791;28;20458;-79
2023/11/07 07:41:36;;;;;;;1.48;0.55;;;10.30;99.90;;;;;;6216370;28;20125;-78
2023/11/07 07:44:40;;;;;;;0.68;0.52;;;10.40;99.90;;;;;;6216205;28;20042;-78
2023/11/07 07:47:45;;;;;;;1.73;0.75;;;10.40;99.90;;;;;;6222799;28;20050;-77
2023/11/07 07:50:47;;;;;;;0.60;0.60;;;10.50;99.90;;;;;;6214299;28;20054;-77
2023/11/07 07:53:53;;;;;;;2.47;0.80;;;10.50;99.90;;;;;;6219127;28;20049;-78
2023/11/07 07:56:55;;;;;;;1.08;0.65;;;10.60;99.90;;;;;;6213203;28;20124;-78
2023/11/07 08:00:00;;;;;;;1.33;0.60;;;10.50;99.90;;;;;;6220388;28;20418;-80
2023/11/07 08:03:06;;;;;;;1.80;0.65;;;10.60;99.90;;;;;;6223160;28;20049;-80
2023/11/07 08:06:11;;;;;;;3.10;0.65;;;10.60;99.90;;;;;;6220224;28;20041;-77
2023/11/07 08:09:13;;;;;;;0.55;0.52;;;10.60;99.90;;;;;;6219542;28;20116;-78
2023/11/07 08:12:15;;;;;;;0.60;0.60;;;10.70;99.90;;;;;;6214688;28;20534;-78
2023/11/07 08:15:19;;;;;;;1.35;0.50;;;10.70;99.90;;;;;;6216554;28;20050;-77
2023/11/07 08:18:21;;;;;;;4.97;0.73;;;10.80;99.90;;;;;;6208366;28;20049;-78
2023/11/07 08:21:25;;;;;;;0.60;0.60;;;10.90;99.90;;;;;;6220358;28;20051;-78
2023/11/07 08:24:27;;;;;;;0.57;0.32;;;10.80;99.90;;;;;;6215275;28;20045;-78
2023/11/07 08:27:28;;;;;;;1.85;0.80;;;10.90;99.90;;;;;;6210731;28;20049;-78
2023/11/07 08:30:31;;;;;;;2.72;0.90;;;10.90;99.90;;;;;;6213876;28;20042;-78
2023/11/07 08:33:33;;;;;;;1.27;1.17;;;10.80;99.90;;;;;;6212566;28;20048;-78
2023/11/07 08:36:35;;;;;;;0.75;0.63;;;10.70;99.90;;;;;;6213090;28;20065;-77
2023/11/07 08:39:36;;;;;;;0.60;0.50;;;10.60;99.90;;;;;;6213639;28;20042;-77
2023/11/07 08:42:43;;;;;;;1.58;0.73;;;10.60;99.90;;;;;;6213713;28;20051;-77
2023/11/07 08:45:47;;;;;;;2.50;0.50;;;10.60;99.90;;;;;;6213460;28;20049;-77
2023/11/07 08:48:51;;;;;;;1.15;0.43;;;10.70;99.90;;;;;;6217519;28;20607;-78
2023/11/07 08:51:52;;;;;;;0.88;0.63;;;10.60;99.90;;;;;;6215111;28;20050;-77
2023/11/07 08:54:54;;;;;;;0.90;0.68;;;10.60;99.90;;;;;;6211660;28;20046;-77
2023/11/07 08:57:56;;;;;;;2.00;0.98;;;10.60;99.90;;;;;;6219850;28;20053;-78
2023/11/07 09:01:01;;;;;;;2.00;0.80;;;10.70;99.90;;;;;;6211467;28;20050;-79
2023/11/07 09:04:09;;;;;;;1.80;0.50;;;10.70;99.90;;;;;;6217040;28;20057;-77
2023/11/07 09:07:12;;;;;;;1.17;0.60;;;10.70;99.90;;;;;;6216246;28;20550;-76
2023/11/07 09:10:14;;;;;;;2.08;1.08;;;10.80;99.90;;;;;;6215277;28;20180;-79
2023/11/07 09:13:16;;;;;;;0.73;0.60;;;10.80;99.90;;;;;;6210632;28;20054;-79
2023/11/07 09:16:19;;;;;;;0.60;0.40;;;10.80;99.90;;;;;;6216926;28;20049;-78
2023/11/07 09:19:21;;;;;;;1.10;1.05;;;10.90;99.90;;;;;;6215731;28;20064;-77
2023/11/07 09:22:22;;;;;;;0.82;0.70;;;11.00;99.90;;;;;;6214667;28;20050;-78
2023/11/07 09:25:24;;;;;;;2.03;0.80;;;11.00;99.90;;;;;;6205649;28;20057;-79
2023/11/07 09:28:26;;;;;;;0.65;0.65;;;11.00;99.90;;;;;;6214218;28;20050;-79
2023/11/07 09:31:29;;;;;;;1.15;0.50;;;11.00;99.90;;;;;;6210225;28;20047;-77
2023/11/07 09:34:30;;;;;;;3.83;0.70;;;11.00;99.90;;;;;;6214516;28;20065;-78
2023/11/07 09:37:33;;;;;;;7.55;0.70;;;11.00;99.90;;;;;;6211204;28;20045;-78
2023/11/07 09:40:35;;;;;;;5.43;1.15;;;11.00;99.90;;;;;;6214877;28;20046;-78
2023/11/07 09:43:38;;;;;;;1.27;0.82;;;11.00;99.90;;;;;;6212077;28;20053;-76
2023/11/07 09:46:41;;;;;;;4.25;1.00;;;11.00;99.90;;;;;;6214810;28;20403;-78
2023/11/07 09:49:43;;;;;;;2.15;0.50;;;11.10;99.90;;;;;;6222894;28;20049;-79
2023/11/07 09:52:47;;;;;;;0.40;0.40;;;11.10;99.90;;;;;;6215238;28;20053;-78
2023/11/07 09:55:50;;;;;;;2.67;0.77;;;11.20;99.90;;;;;;6216500;28;20046;-78
2023/11/07 09:59:00;;;;;;;0.73;0.52;;;11.10;99.90;;;;;;6216591;28;20046;-76
2023/11/07 10:02:03;;;;;;;4.45;0.80;;;11.10;99.90;;;;;;6209760;28;20415;-79
2023/11/07 10:05:07;;;;;;;3.60;0.65;;;11.10;99.90;;;;;;6210974;28;20049;-80
2023/11/07 10:08:09;;;;;;;1.02;0.68;;;11.00;99.90;;;;;;6219154;28;20058;-79
2023/11/07 10:11:12;;;;;;;0.63;0.63;;;10.80;99.90;;;;;;6208403;28;20042;-78
2023/11/07 10:14:16;;;;;;;0.88;0.50;;;10.70;99.90;;;;;;6216135;28;20549;-78
2023/11/07 10:17:23;;;;;;;0.73;0.70;;;10.50;99.90;;;;;;6208669;28;20048;-80
2023/11/07 10:20:25;;;;;;;2.15;1.80;;;10.40;99.90;;;;;;6221005;28;20042;-80
2023/11/07 10:23:27;;;;;;;1.13;0.95;;;10.10;99.90;;;;;;6231706;28;20045;-78
2023/11/07 10:26:29;;;;;;;0.68;0.50;;;10.00;99.90;;;;;;6227828;28;20129;-79
2023/11/07 10:29:31;;;;;;;2.25;0.80;;;10.00;99.90;;;;;;6204278;28;20058;-78
2023/11/07 10:32:45;;;;;;;2.67;0.60;;;10.00;99.90;;;;;;6219178;28;20630;-84
2023/11/07 10:35:52;;;;;;;0.73;0.50;;;10.00;99.90;;;;;;6220136;28;20106;-79
2023/11/07 10:38:54;;;;;;;0.70;0.52;;;10.00;99.90;;;;;;6205121;28;20089;-79
2023/11/07 10:41:56;;;;;;;0.30;0.30;;;10.10;99.90;;;;;;6213791;28;20053;-79
2023/11/07 10:45:01;;;;;;;0.68;0.30;;;10.20;99.90;;;;;;6227623;28;20046;-82
2023/11/07 10:48:06;;;;;;;0.45;0.45;;;10.20;99.90;;;;;;6215530;28;20049;-80
2023/11/07 10:51:09;;;;;;;0.68;0.50;;;10.20;99.90;;;;;;6218536;28;20038;-77
2023/11/07 10:54:11;;;;;;;0.20;0.20;;;10.20;99.90;;;;;;6216426;28;20058;-78
2023/11/07 10:57:21;;;;;;;0.95;0.60;;;10.30;99.90;;;;;;6218212;28;20056;-78
2023/11/07 11:00:27;;;;;;;0.30;0.30;;;10.40;99.90;;;;;;6220470;28;20042;-78
2023/11/07 11:03:31;;;;;;;0.75;0.45;;;10.50;99.90;;;;;;6213443;28;20052;-79
2023/11/07 11:06:33;;;;;;;3.03;0.55;;;10.40;99.90;;;;;;6216413;28;20085;-77
2023/11/07 11:09:35;;;;;;;1.00;0.77;;;10.40;99.90;;;;;;6203206;28;20042;-78
2023/11/07 11:12:42;;;;;;;0.60;0.60;;;10.40;99.90;;;;;;6215577;28;20058;-77
2023/11/07 11:15:46;;;;;;;2.75;1.60;;;10.40;99.90;;;;;;6210580;28;20087;-79
2023/11/07 11:18:56;;;;;;;0.50;0.50;;;10.50;99.90;;;;;;6207151;28;20077;-77
2023/11/07 11:22:06;;;;;;;2.58;0.60;;;10.60;99.90;;;;;;6217647;28;20060;-78
2023/11/07 11:25:21;;;;;;;0.35;0.32;;;10.80;99.90;;;;;;6215574;28;20053;-79
2023/11/07 11:28:37;;;;;;;0.77;0.70;;;11.00;99.90;;;;;;6219691;28;20057;-79
2023/11/07 11:31:39;;;;;;;1.42;0.70;;;11.30;99.90;;;;;;6217319;28;20418;-77
2023/11/07 11:34:43;;;;;;;0.60;0.52;;;11.60;99.90;;;;;;6220921;28;20100;-77
2023/11/07 11:38:09;;;;;;;2.20;0.82;;;11.90;99.90;;;;;;6221659;28;20101;-78
2023/11/07 11:41:10;;;;;;;1.17;0.70;;;12.10;99.90;;;;;;6215398;28;20057;-77
2023/11/07 11:44:14;;;;;;;1.45;0.68;;;12.10;99.90;;;;;;6225551;28;20065;-78
2023/11/07 11:47:50;;;;;;;1.98;0.95;;;11.90;99.90;;;;;;6228603;28;20069;-79
2023/11/07 11:51:25;;;;;;;1.52;0.50;;;11.90;99.90;;;;;;6199326;28;20061;-79
2023/11/07 11:54:53;;;;;;;0.95;0.70;;;11.90;99.90;;;;;;6226840;28;20052;-77
2023/11/07 11:58:15;;;;;;;0.45;0.45;;;12.00;99.90;;;;;;6223829;28;20045;-81
2023/11/07 12:01:18;;;;;;;1.23;0.80;;;12.00;99.90;;;;;;6227342;28;20052;-78
2023/11/07 12:04:32;;;;;;;0.73;0.57;;;12.10;99.90;;;;;;6228742;28;20085;-77
2023/11/07 12:07:34;;;;;;;2.60;1.02;;;12.10;99.90;;;;;;6220146;28;20128;-80
2023/11/07 12:10:37;;;;;;;2.50;0.88;;;12.00;99.90;;;;;;6223347;28;20052;-78
2023/11/07 12:13:39;;;;;;;1.95;0.85;;;12.10;99.90;;;;;;6218065;28;20061;-78
2023/11/07 12:16:40;;;;;;;1.15;0.63;;;12.00;99.90;;;;;;6220475;28;20132;-79
2023/11/07 12:19:44;;;;;;;1.10;0.90;;;12.00;99.90;;;;;;6228636;28;20038;-79
2023/11/07 12:22:47;;;;;;;0.98;0.80;;;12.00;99.90;;;;;;6218731;28;20038;-79
2023/11/07 12:25:53;;;;;;;1.15;0.50;;;12.00;99.90;;;;;;6221426;28;20540;-79
2023/11/07 12:28:54;;;;;;;1.88;0.93;;;12.00;99.90;;;;;;6220902;28;20384;-80
2023/11/07 12:31:56;;;;;;;3.15;1.50;;;12.10;99.90;;;;;;6218306;28;20065;-80
2023/11/07 12:34:58;;;;;;;1.50;0.80;;;12.10;99.90;;;;;;6213560;28;20049;-79
2023/11/07 12:38:03;;;;;;;1.38;1.25;;;12.00;99.90;;;;;;6217254;28;20522;-80
2023/11/07 12:41:07;;;;;;;2.75;1.85;;;12.00;99.90;;;;;;6221142;28;20075;-80
2023/11/07 12:44:13;;;;;;;1.33;1.13;;;12.20;99.90;;;;;;6221017;28;20368;-80
2023/11/07 12:47:15;;;;;;;3.53;1.05;;;12.40;99.90;;;;;;6222250;28;20045;-78
2023/11/07 12:50:20;;;;;;;0.75;0.70;;;12.80;99.90;;;;;;6213439;28;20045;-79
2023/11/07 12:53:22;;;;;;;7.68;5.35;;;13.40;99.90;;;;;;6220944;28;20049;-77
2023/11/07 12:56:26;;;;;;;1.13;0.60;;;13.60;99.90;;;;;;6221142;28;20046;-77
2023/11/07 12:59:28;;;;;;;1.48;0.90;;;13.60;99.90;;;;;;6224179;28;20068;-79
2023/11/07 13:02:30;;;;;;;0.60;0.60;;;13.40;99.90;;;;;;6210091;28;20442;-78
2023/11/07 13:05:31;;;;;;;0.88;0.60;;;13.10;99.90;;;;;;6221329;28;20370;-79
2023/11/07 13:08:35;;;;;;;1.17;0.65;;;13.00;99.90;;;;;;6218963;28;20189;-79
2023/11/07 13:11:40;;;;;;;1.67;0.77;;;12.90;99.90;;;;;;6216707;28;20491;-79
2023/11/07 13:14:43;;;;;;;0.52;0.52;;;12.80;99.90;;;;;;6215476;28;20056;-78
2023/11/07 13:17:46;;;;;;;0.40;0.40;;;12.70;99.90;;;;;;6224944;28;20503;-80
2023/11/07 13:20:48;;;;;;;0.68;0.50;;;12.60;99.90;;;;;;6228609;28;20042;-82
2023/11/07 13:23:49;;;;;;;0.50;0.30;;;12.70;99.90;;;;;;6224287;28;20105;-79
2023/11/07 13:26:53;;;;;;;0.22;0.22;;;12.70;99.90;;;;;;6228349;28;20057;-79
2023/11/07 13:29:55;;;;;;;2.42;0.77;;;12.60;99.90;;;;;;6216766;28;20057;-80
2023/11/07 13:32:56;;;;;;;4.55;1.20;;;12.50;99.90;;;;;;6222609;28;20052;-80
2023/11/07 13:35:58;;;;;;;1.23;0.35;;;12.40;99.90;;;;;;6220060;28;20551;-80
2023/11/07 13:39:00;;;;;;;0.30;0.30;;;12.20;99.90;;;;;;6218348;28;20065;-81
2023/11/07 13:42:04;;;;;;;0.50;0.50;;;12.00;99.90;;;;;;6218065;28;20121;-79
2023/11/07 13:45:07;;;;;;;0.25;0.25;;;11.90;99.90;;;;;;6214556;28;20042;-79
2023/11/07 13:48:09;;;;;;;2.17;0.60;;;11.70;99.90;;;;;;6205573;28;20054;-79
2023/11/07 13:51:11;;;;;;;1.52;0.73;;;11.50;99.90;;;;;;6218882;28;20049;-78
2023/11/07 13:54:13;;;;;;;5.15;0.50;;;11.10;99.90;;;;;;6214557;28;20043;-80
2023/11/07 13:57:16;;;;;;;1.33;0.40;;;10.80;99.90;;;;;;6209951;28;20046;-80
2023/11/07 14:00:18;;;;;;;1.25;0.50;;;10.40;99.90;;;;;;6209073;28;20050;-81
2023/11/07 14:03:20;;;;;;;1.10;0.65;;;10.10;99.90;;;;;;6210432;28;20050;-80
2023/11/07 14:06:22;;;;;;;0.30;0.30;;;9.90;99.90;;;;;;6218266;28;20054;-79
2023/11/07 14:09:24;;;;;;;1.35;0.50;;;9.80;99.90;;;;;;6210659;28;20050;-79
2023/11/07 14:12:27;;;;;;;1.13;1.00;;;9.60;99.90;;;;;;6210310;28;20262;-78
2023/11/07 14:15:32;;;;;;;1.30;0.95;;;9.60;99.90;;;;;;6211710;28;20149;-79
2023/11/07 14:18:34;;;;;;;2.08;0.93;;;9.50;99.90;;;;;;6218284;28;20093;-79
2023/11/07 14:21:36;;;;;;;12.05;9.02;;;9.50;99.90;;;;;;6218298;28;20439;-80
2023/11/07 14:24:38;;;;;;;145.80;84.47;;;9.50;99.90;;;;;;6217426;28;20427;-78
2023/11/07 14:27:43;;;;;;;28.15;18.83;;;9.40;99.90;;;;;;6210033;28;20109;-78
2023/11/07 14:30:45;;;;;;;7.97;5.55;;;9.40;99.90;;;;;;6212892;28;20042;-79
2023/11/07 14:33:47;;;;;;;15.05;8.55;;;9.40;99.90;;;;;;6217633;28;20038;-79
2023/11/07 14:36:49;;;;;;;2.83;1.80;;;9.30;99.90;;;;;;6208366;28;20053;-79
2023/11/07 14:39:50;;;;;;;2.65;2.00;;;9.40;99.90;;;;;;6212376;28;20045;-79
2023/11/07 14:42:54;;;;;;;1.10;1.00;;;9.60;99.90;;;;;;6213407;28;20046;-80
2023/11/07 14:45:58;;;;;;;1.42;0.77;;;9.90;99.90;;;;;;6215309;28;20050;-78
2023/11/07 14:49:00;;;;;;;0.60;0.60;;;10.10;99.90;;;;;;6221155;28;20042;-80
2023/11/07 14:52:03;;;;;;;1.23;0.43;;;10.10;99.90;;;;;;6218869;28;20101;-80
2023/11/07 14:55:07;;;;;;;1.55;1.13;;;10.00;99.90;;;;;;6217067;28;20049;-80
2023/11/07 14:58:11;;;;;;;1.90;0.77;;;9.90;99.90;;;;;;6217732;28;20097;-79
2023/11/07 15:01:12;;;;;;;0.50;0.50;;;9.80;99.90;;;;;;6214993;28;20503;-79
2023/11/07 15:04:15;;;;;;;2.60;0.75;;;9.70;99.90;;;;;;6214359;28;20109;-80
2023/11/07 15:07:17;;;;;;;0.70;0.70;;;9.60;99.90;;;;;;6219206;28;20042;-80
2023/11/07 15:10:19;;;;;;;4.00;1.08;;;9.60;99.90;;;;;;6223979;28;20049;-80
2023/11/07 15:13:35;;;;;;;0.60;0.60;;;9.60;99.90;;;;;;6219788;28;20053;-79
2023/11/07 15:16:37;;;;;;;2.85;0.88;;;9.50;99.90;;;;;;6219311;28;20140;-80
2023/11/07 15:19:39;;;;;;;0.95;0.95;;;9.60;99.90;;;;;;6219491;28;20507;-80
2023/11/07 15:22:42;;;;;;;0.90;0.70;;;9.50;99.90;;;;;;6219541;28;20054;-80
2023/11/07 15:25:43;;;;;;;1.63;0.60;;;9.50;99.90;;;;;;6191056;28;1032946;-80
2023/11/07 15:28:48;;;;;;;1.13;0.93;;;9.50;99.90;;;;;;6225240;28;20052;-80
2023/11/07 15:31:50;;;;;;;0.90;0.57;;;9.50;99.90;;;;;;6222520;28;20109;-79
2023/11/07 15:34:52;;;;;;;1.58;0.68;;;9.40;99.90;;;;;;6224532;28;20078;-80
2023/11/07 15:37:56;;;;;;;0.88;0.45;;;9.20;99.90;;;;;;6223140;28;20045;-80
2023/11/07 15:40:57;;;;;;;0.65;0.65;;;9.20;99.90;;;;;;6217513;28;20125;-80
2023/11/07 15:44:00;;;;;;;2.30;0.98;;;9.20;99.90;;;;;;6222780;28;20046;-80
2023/11/07 15:47:05;;;;;;;0.65;0.50;;;9.20;99.90;;;;;;6223169;28;20038;-79
2023/11/07 15:50:08;;;;;;;1.20;0.77;;;9.20;99.90;;;;;;6222205;28;20052;-79
2023/11/07 15:53:11;;;;;;;0.70;0.70;;;9.10;99.90;;;;;;6228696;28;20144;-79
2023/11/07 15:56:12;;;;;;;2.83;1.77;;;9.00;99.90;;;;;;6225960;28;20056;-79
2023/11/07 15:59:16;;;;;;;1.95;0.80;;;8.90;99.90;;;;;;6220751;28;20379;-80
2023/11/07 16:02:18;;;;;;;0.88;0.70;;;8.80;99.90;;;;;;6225390;28;20152;-79
2023/11/07 16:05:21;;;;;;;0.75;0.73;;;8.80;99.90;;;;;;6215287;28;20061;-80
2023/11/07 16:08:23;;;;;;;1.65;0.95;;;8.70;99.90;;;;;;6218333;28;20078;-79
2023/11/07 16:11:25;;;;;;;3.88;1.13;;;8.70;99.90;;;;;;6223390;28;20068;-79
2023/11/07 16:14:28;;;;;;;3.22;1.88;;;8.70;99.90;;;;;;6216239;28;20047;-78
2023/11/07 16:17:30;;;;;;;0.82;0.75;;;8.80;99.90;;;;;;6215674;28;20411;-79
2023/11/07 16:20:32;;;;;;;2.53;1.05;;;8.80;99.90;;;;;;6216459;28;20121;-79
2023/11/07 16:23:34;;;;;;;3.08;0.90;;;8.80;99.90;;;;;;6213053;28;20048;-79
2023/11/07 16:26:36;;;;;;;5.43;0.98;;;8.80;99.90;;;;;;6209369;28;20046;-78
2023/11/07 16:29:40;;;;;;;0.63;0.45;;;8.80;99.90;;;;;;6221655;28;20045;-78
2023/11/07 16:32:42;;;;;;;1.40;1.20;;;8.80;99.90;;;;;;6214819;28;20508;-79
2023/11/07 16:35:43;;;;;;;1.65;0.88;;;8.80;99.90;;;;;;6221503;28;20062;-78
2023/11/07 16:38:45;;;;;;;1.67;1.20;;;8.80;99.90;;;;;;6223127;28;20124;-78
2023/11/07 16:41:47;;;;;;;1.17;0.90;;;8.80;99.90;;;;;;6211887;28;20042;-78
2023/11/07 16:44:50;;;;;;;1.30;0.77;;;8.70;99.90;;;;;;6213805;28;20058;-77
2023/11/07 16:47:52;;;;;;;3.70;0.85;;;8.70;99.90;;;;;;6210512;28;20084;-79
2023/11/07 16:50:54;;;;;;;1.92;1.48;;;8.70;99.90;;;;;;6215490;28;20056;-77
2023/11/07 16:53:55;;;;;;;2.03;1.75;;;8.70;99.90;;;;;;6213996;28;20042;-78
2023/11/07 16:56:57;;;;;;;3.25;1.33;;;8.70;99.90;;;;;;6206934;28;20045;-77
2023/11/07 17:00:00;;;;;;;3.67;1.42;;;8.80;99.90;;;;;;6207345;28;20491;-78
2023/11/07 17:03:02;;;;;;;5.97;1.13;;;8.70;99.90;;;;;;6209847;28;20057;-77
2023/11/07 17:06:04;;;;;;;1.95;1.13;;;8.70;99.90;;;;;;6213695;28;20455;-78
2023/11/07 17:09:06;;;;;;;1.98;1.13;;;8.70;99.90;;;;;;6221344;28;20069;-77
2023/11/07 17:12:08;;;;;;;7.90;1.23;;;8.70;99.90;;;;;;6219862;28;20065;-77
2023/11/07 17:15:12;;;;;;;2.28;1.52;;;8.70;99.90;;;;;;6210994;28;20049;-78
2023/11/07 17:18:13;;;;;;;9.30;1.75;;;8.60;99.90;;;;;;6212523;28;20061;-78
2023/11/07 17:21:16;;;;;;;2.38;1.08;;;8.60;99.90;;;;;;6208271;28;20052;-78
2023/11/07 17:24:17;;;;;;;1.58;1.20;;;8.60;99.90;;;;;;6205189;28;20050;-77
2023/11/07 17:27:20;;;;;;;1.52;1.10;;;8.70;99.90;;;;;;6217817;23;20049;-77
2023/11/07 17:30:23;;;;;;;3.25;1.30;;;8.70;99.90;;;;;;6229555;28;20056;-77
2023/11/07 17:33:24;;;;;;;3.72;1.70;;;8.70;99.90;;;;;;6230655;28;20478;-77
2023/11/07 17:36:26;;;;;;;2.42;1.52;;;8.70;99.90;;;;;;6229819;28;20057;-78
2023/11/07 17:39:28;;;;;;;2.30;2.10;;;8.60;99.90;;;;;;6254534;28;20406;-77
2023/11/07 17:42:30;;;;;;;1.98;1.20;;;8.60;99.90;;;;;;6240680;28;20049;-77
2023/11/07 17:45:34;;;;;;;2.72;1.73;;;8.50;99.90;;;;;;6240986;28;20053;-76